Time;durP1;ratioP1;P1;durP2;ratioP2;P2;SDS_P1;SDS_P2;PMS_P1;PMS_P2;Temp;Humidity;BMP_temperature;BMP_pressure;BME280_temperature;BME280_humidity;BME280_pressure;Samples;Min_cycle;Max_cycle;Signal;HPM_P1;HPM_P2
2023/07/30 00:01:30;;;;;;;14.00;6.57;;;;;;;14.57;100.00;100213.78;5009069;28;20028;-73
2023/07/30 00:03:55;;;;;;;10.33;4.97;;;;;;;14.56;100.00;100209.44;5026327;28;20120;-73
2023/07/30 00:06:20;;;;;;;13.07;5.97;;;;;;;14.50;100.00;100223.66;5041919;28;20040;-73
2023/07/30 00:08:46;;;;;;;17.20;6.33;;;;;;;14.49;100.00;100230.06;5026220;28;20032;-73
2023/07/30 00:11:11;;;;;;;10.07;5.77;;;;;;;14.53;100.00;100241.22;5026656;28;20082;-74
2023/07/30 00:13:37;;;;;;;15.53;5.10;;;;;;;14.54;100.00;100234.88;5034089;28;20040;-73
2023/07/30 00:16:02;;;;;;;20.60;6.63;;;;;;;14.54;100.00;100240.22;5042242;28;20032;-73
2023/07/30 00:18:27;;;;;;;16.60;7.27;;;;;;;14.56;100.00;100252.44;5026160;28;20041;-74
2023/07/30 00:20:53;;;;;;;17.73;7.33;;;;;;;14.58;100.00;100252.22;5008408;28;20064;-75
2023/07/30 00:23:21;;;;;;;13.87;7.33;;;;;;;14.53;100.00;100246.59;5027676;28;20761;-76
2023/07/30 00:25:46;;;;;;;13.90;7.60;;;;;;;14.63;100.00;100255.13;5028968;28;20381;-76
2023/07/30 00:28:12;;;;;;;21.03;8.30;;;;;;;14.63;100.00;100255.13;5026253;28;20022;-76
2023/07/30 00:30:37;;;;;;;15.20;8.47;;;;;;;14.72;100.00;100261.97;5026336;28;20025;-76
2023/07/30 00:33:02;;;;;;;24.60;8.47;;;;;;;14.78;100.00;100263.88;5045956;28;20044;-75
2023/07/30 00:35:28;;;;;;;18.80;8.07;;;;;;;14.77;100.00;100258.69;5026201;28;20474;-75
2023/07/30 00:37:53;;;;;;;20.87;8.03;;;;;;;14.80;100.00;100268.19;5041086;28;20034;-75
2023/07/30 00:40:18;;;;;;;26.23;11.57;;;;;;;14.84;100.00;100269.47;5047949;28;20028;-76
2023/07/30 00:42:44;;;;;;;22.57;10.47;;;;;;;14.85;100.00;100255.00;5024038;28;20635;-76
2023/07/30 00:45:10;;;;;;;24.13;9.80;;;;;;;14.94;100.00;100259.16;5008366;28;20045;-76
2023/07/30 00:47:37;;;;;;;18.83;10.80;;;;;;;14.92;100.00;100261.22;5030035;28;20123;-76
2023/07/30 00:50:02;;;;;;;40.25;13.18;;;;;;;14.91;100.00;100264.94;5047885;22;20977;-72
2023/07/30 00:52:29;;;;;;;29.25;13.02;;;;;;;14.91;100.00;100262.25;5053023;28;20142;-72
2023/07/30 00:54:57;;;;;;;25.05;12.38;;;;;;;14.90;100.00;100263.28;5051943;28;20085;-71
2023/07/30 00:57:23;;;;;;;31.10;13.18;;;;;;;14.91;100.00;100267.63;5029434;28;20110;-72
2023/07/30 00:59:49;;;;;;;27.67;12.73;;;;;;;14.84;100.00;100264.09;5036072;28;20016;-72
2023/07/30 01:02:15;;;;;;;21.10;11.18;;;;;;;14.88;100.00;100262.66;5026992;28;20516;-71
2023/07/30 01:04:41;;;;;;;35.28;14.25;;;;;;;14.92;100.00;100263.91;5056579;28;20016;-72
2023/07/30 01:07:06;;;;;;;24.85;11.52;;;;;;;14.96;100.00;100262.47;5038559;28;20029;-72
2023/07/30 01:09:33;;;;;;;27.47;12.77;;;;;;;15.01;100.00;100253.78;5045186;28;20013;-72
2023/07/30 01:12:03;;;;;;;26.98;12.30;;;;;;;14.96;100.00;100257.06;5026845;28;20041;-71
2023/07/30 01:14:29;;;;;;;29.35;12.32;;;;;;;14.93;100.00;100257.50;5029670;28;20029;-71
2023/07/30 01:16:55;;;;;;;21.70;11.30;;;;;;;14.96;100.00;100257.06;5041837;28;20048;-72
2023/07/30 01:19:20;;;;;;;22.05;12.23;;;;;;;15.03;100.00;100262.47;5027415;28;20429;-72
2023/07/30 01:21:46;;;;;;;24.90;12.90;;;;;;;14.98;100.00;100260.41;5036717;28;20099;-72
2023/07/30 01:24:11;;;;;;;28.87;12.47;;;;;;;14.95;100.00;100260.81;5050895;28;20584;-74
2023/07/30 01:26:54;;;;;;;25.17;11.83;;;;;;;14.99;100.00;100262.06;5047237;28;20214;-74
2023/07/30 01:29:33;;;;;;;23.27;11.65;;;;;;;15.02;100.00;100272.41;5027352;28;20429;-74
2023/07/30 01:32:04;;;;;;;20.92;13.02;;;;;;;15.03;100.00;100271.41;5044576;28;20032;-74
2023/07/30 01:34:34;;;;;;;21.27;11.90;;;;;;;15.09;100.00;100270.56;5026933;28;20025;-74
2023/07/30 01:37:00;;;;;;;23.92;11.52;;;;;;;15.12;100.00;100272.84;5055825;28;20036;-74
2023/07/30 01:39:27;;;;;;;23.58;11.95;;;;;;;15.08;100.00;100265.41;5034111;28;20017;-74
2023/07/30 01:41:55;;;;;;;;;;;;;;;15.07;100.00;100261.03;5027672;28;20043;-74
2023/07/30 01:44:20;;;;;;;20.98;12.15;;;;;;;15.06;100.00;100268.28;5025411;28;19908;-74
2023/07/30 01:46:46;;;;;;;23.10;12.38;;;;;;;15.06;100.00;100268.28;5050089;28;20039;-74
2023/07/30 01:49:11;;;;;;;30.63;14.77;;;;;;;15.04;100.00;100273.03;5055666;28;20029;-74
2023/07/30 01:51:37;;;;;;;25.10;14.60;;;;;;;14.99;100.00;100278.19;5038568;28;20036;-74
2023/07/30 01:54:02;;;;;;;30.33;15.47;;;;;;;14.98;100.00;100277.38;5018514;28;20029;-72
2023/07/30 01:56:28;;;;;;;26.00;14.03;;;;;;;14.92;100.00;100278.19;5025104;28;20119;-71
2023/07/30 01:58:53;;;;;;;37.30;15.13;;;;;;;14.98;100.00;100274.69;5043212;28;20037;-72
2023/07/30 02:01:18;;;;;;;26.73;14.87;;;;;;;15.06;100.00;100279.03;5026754;28;20037;-72
2023/07/30 02:03:44;;;;;;;25.63;13.07;;;;;;;15.11;100.00;100271.19;5042953;28;20029;-72
2023/07/30 02:06:11;;;;;;;28.25;14.65;;;;;;;15.13;100.00;100274.50;5050991;28;20029;-71
2023/07/30 02:08:36;;;;;;;24.38;14.15;;;;;;;15.12;100.00;100269.31;5026839;28;20025;-72
2023/07/30 02:11:02;;;;;;;29.03;15.67;;;;;;;14.98;100.00;100260.41;5057403;28;20111;-71
2023/07/30 02:13:28;;;;;;;25.77;13.00;;;;;;;15.06;100.00;100267.47;5017948;28;20274;-72
2023/07/30 02:15:53;;;;;;;27.87;13.57;;;;;;;15.09;100.00;100267.88;5046544;28;20536;-72
2023/07/30 02:18:21;;;;;;;25.35;13.95;;;;;;;15.13;100.00;100258.38;5023583;28;20021;-72
2023/07/30 02:20:47;;;;;;;27.40;13.93;;;;;;;15.14;100.00;100253.81;5058292;28;20945;-72
2023/07/30 02:23:14;;;;;;;27.00;14.37;;;;;;;15.19;100.00;100259.41;5054571;28;20032;-71
2023/07/30 02:25:39;;;;;;;22.10;13.15;;;;;;;15.23;100.00;100257.97;5025121;28;20021;-71
2023/07/30 02:28:05;;;;;;;23.80;13.73;;;;;;;15.29;100.00;100259.00;5031425;28;20592;-72
2023/07/30 02:30:32;;;;;;;;;;;;;;;15.34;100.00;100261.94;5058285;28;20033;-72
2023/07/30 02:32:57;;;;;;;20.70;13.20;;;;;;;15.33;100.00;100250.31;5059961;28;20744;-72
2023/07/30 02:35:25;;;;;;;24.35;13.80;;;;;;;15.31;100.00;100259.63;5052848;28;20455;-71
2023/07/30 02:37:51;;;;;;;23.87;12.63;;;;;;;15.37;100.00;100275.78;5049382;28;20021;-72
2023/07/30 02:40:16;;;;;;;30.67;14.47;;;;;;;15.36;100.00;100263.38;5048053;28;20033;-73
2023/07/30 02:42:42;;;;;;;34.03;15.60;;;;;;;15.30;100.00;100258.81;5038184;28;20742;-75
2023/07/30 02:45:07;;;;;;;31.27;15.97;;;;;;;15.19;100.00;100251.34;5048139;28;20536;-74
2023/07/30 02:47:33;;;;;;;33.85;16.48;;;;;;;15.17;100.00;100253.41;5044397;28;20108;-74
2023/07/30 02:49:58;;;;;;;37.40;17.03;;;;;;;15.18;100.00;100245.13;5046702;28;20033;-75
2023/07/30 02:52:23;;;;;;;29.47;15.97;;;;;;;15.22;100.00;100258.16;5038084;28;20028;-76
2023/07/30 02:54:49;;;;;;;37.90;17.67;;;;;;;15.30;100.00;100268.75;5056292;28;20091;-77
2023/07/30 02:57:14;;;;;;;35.23;17.83;;;;;;;15.32;100.00;100270.19;5049635;28;20036;-77
2023/07/30 02:59:40;;;;;;;34.00;17.10;;;;;;;15.33;100.00;100277.22;5057123;28;20040;-77
2023/07/30 03:02:06;;;;;;;38.35;18.88;;;;;;;15.33;100.00;100273.69;5037392;28;20024;-76
2023/07/30 03:04:32;;;;;;;32.55;17.45;;;;;;;15.37;100.00;100274.97;5029666;28;20047;-77
2023/07/30 03:06:57;;;;;;;40.08;18.92;;;;;;;15.36;100.00;100270.63;5046347;28;20017;-76
2023/07/30 03:09:22;;;;;;;38.40;18.83;;;;;;;15.34;100.00;100275.38;5027366;28;20132;-77
2023/07/30 03:11:51;;;;;;;37.47;18.80;;;;;;;15.29;100.00;100284.06;5045983;28;20240;-77
2023/07/30 03:14:20;;;;;;;38.40;21.00;;;;;;;15.24;100.00;100280.31;5046060;28;20090;-77
2023/07/30 03:16:46;;;;;;;35.03;19.38;;;;;;;15.29;100.00;100280.50;5045786;28;20028;-76
2023/07/30 03:19:11;;;;;;;41.53;21.05;;;;;;;15.26;100.00;100294.38;5046033;28;20139;-77
2023/07/30 03:21:37;;;;;;;45.00;23.23;;;;;;;15.24;100.00;100288.38;5055221;28;20166;-76
2023/07/30 03:24:02;;;;;;;38.93;22.83;;;;;;;15.28;100.00;100281.56;5018050;28;20033;-76
2023/07/30 03:26:28;;;;;;;48.30;23.20;;;;;;;15.31;100.00;100289.22;5045994;28;20063;-76
2023/07/30 03:28:53;;;;;;;39.05;23.20;;;;;;;15.35;100.00;100290.47;5029261;28;20033;-76
2023/07/30 03:31:18;;;;;;;45.10;23.53;;;;;;;15.38;100.00;100290.03;5045739;28;20053;-77
2023/07/30 03:33:45;;;;;;;41.73;22.37;;;;;;;15.39;100.00;100291.72;5045571;28;20057;-76
2023/07/30 03:36:11;;;;;;;37.25;23.10;;;;;;;15.37;100.00;100294.59;5047036;28;20020;-77
2023/07/30 03:38:37;;;;;;;47.85;25.00;;;;;;;15.38;100.00;100300.81;5029171;28;20383;-76
2023/07/30 03:41:04;;;;;;;38.83;21.80;;;;;;;15.39;100.00;100289.84;5045618;28;20043;-78
2023/07/30 03:43:29;;;;;;;36.75;24.08;;;;;;;15.40;100.00;100309.50;5028752;28;20474;-77
2023/07/30 03:45:55;;;;;;;37.80;23.57;;;;;;;15.34;100.00;100304.97;5045627;28;20027;-77
2023/07/30 03:48:20;;;;;;;33.13;22.13;;;;;;;15.42;100.00;100304.75;5050408;28;20066;-76
2023/07/30 03:50:46;;;;;;;36.20;22.10;;;;;;;15.40;100.00;100304.97;5045239;28;20497;-76
2023/07/30 03:53:11;;;;;;;37.70;22.17;;;;;;;15.33;100.00;100295.22;5045168;28;20063;-76
2023/07/30 03:55:37;;;;;;;38.10;23.17;;;;;;;15.33;100.00;100308.66;5045516;28;20090;-77
2023/07/30 03:58:02;;;;;;;31.07;20.97;;;;;;;15.30;100.00;100311.78;5045236;28;20048;-77
2023/07/30 04:00:29;;;;;;;30.80;20.63;;;;;;;15.34;100.00;100313.03;5046374;28;20097;-77
2023/07/30 04:02:54;;;;;;;34.28;22.67;;;;;;;15.37;100.00;100318.81;5044985;28;20037;-77
2023/07/30 04:05:20;;;;;;;35.67;20.23;;;;;;;15.34;100.00;100324.59;5046672;28;20081;-77
2023/07/30 04:07:45;;;;;;;33.77;20.07;;;;;;;15.33;100.00;100316.72;5025583;28;20058;-77
2023/07/30 04:10:10;;;;;;;29.57;18.93;;;;;;;15.40;100.00;100326.50;5047286;28;20025;-77
2023/07/30 04:12:36;;;;;;;28.90;19.60;;;;;;;15.35;100.00;100333.50;5048208;28;20039;-77
2023/07/30 04:15:01;;;;;;;32.57;20.73;;;;;;;15.27;100.00;100326.47;5046612;28;20029;-77
2023/07/30 04:17:26;;;;;;;40.03;20.27;;;;;;;15.33;100.00;100335.56;5045261;28;20040;-77
2023/07/30 04:19:52;;;;;;;42.47;23.07;;;;;;;15.33;100.00;100339.06;5027652;28;20318;-78
2023/07/30 04:22:17;;;;;;;31.60;19.57;;;;;;;15.51;100.00;100335.81;5028146;28;20029;-79
2023/07/30 04:24:42;;;;;;;34.60;20.40;;;;;;;15.36;100.00;100337.88;5044749;28;20036;-77
2023/07/30 04:27:08;;;;;;;31.67;19.70;;;;;;;15.40;100.00;100344.47;5047401;28;20108;-76
2023/07/30 04:29:34;;;;;;;34.67;21.07;;;;;;;15.49;100.00;100340.56;5045205;28;20028;-77
2023/07/30 04:31:59;;;;;;;29.52;18.95;;;;;;;15.37;100.00;100344.88;5029240;28;20025;-76
2023/07/30 04:34:25;;;;;;;30.40;19.23;;;;;;;15.39;100.00;100337.44;5044049;28;20444;-76
2023/07/30 04:36:51;;;;;;;27.75;17.05;;;;;;;15.46;100.00;100338.28;5044523;28;20441;-76
2023/07/30 04:39:16;;;;;;;31.83;20.15;;;;;;;15.40;100.00;100345.31;5027974;28;20029;-73
2023/07/30 04:41:42;;;;;;;35.33;20.83;;;;;;;15.30;100.00;100333.28;5028068;28;20034;-73
2023/07/30 04:44:07;;;;;;;43.93;21.67;;;;;;;15.38;100.00;100347.38;5045154;28;20035;-73
2023/07/30 04:46:33;;;;;;;30.30;18.85;;;;;;;15.47;100.00;100333.72;5044796;28;20061;-73
2023/07/30 04:49:02;;;;;;;31.98;19.65;;;;;;;15.43;100.00;100335.16;5044110;28;20086;-73
2023/07/30 04:51:27;;;;;;;31.48;18.33;;;;;;;15.42;100.00;100328.97;5052191;28;20132;-73
2023/07/30 04:53:53;;;;;;;22.47;17.80;;;;;;;15.44;100.00;100321.53;5043737;28;20127;-74
2023/07/30 04:56:18;;;;;;;36.13;20.47;;;;;;;15.40;100.00;100325.63;5044261;28;20029;-73
2023/07/30 04:58:43;;;;;;;30.93;19.77;;;;;;;15.38;100.00;100322.31;5045008;28;20382;-73
2023/07/30 05:01:09;;;;;;;30.20;18.73;;;;;;;15.38;100.00;100322.31;5028337;28;20037;-73
2023/07/30 05:03:34;;;;;;;27.47;19.10;;;;;;;15.48;100.00;100328.16;5043375;28;20024;-74
2023/07/30 05:05:59;;;;;;;29.20;17.87;;;;;;;15.52;100.00;100326.72;5051974;28;20067;-74
2023/07/30 05:08:25;;;;;;;29.03;19.07;;;;;;;15.60;100.00;100326.50;5048590;28;20024;-73
2023/07/30 05:10:50;;;;;;;29.20;20.03;;;;;;;15.68;100.00;100332.72;5047668;28;20033;-73
2023/07/30 05:13:16;;;;;;;32.80;20.73;;;;;;;15.53;100.00;100322.97;5047397;28;20473;-73
2023/07/30 05:15:41;;;;;;;37.37;20.47;;;;;;;15.72;100.00;100325.94;5043439;28;20465;-73
2023/07/30 05:18:06;;;;;;;33.05;19.58;;;;;;;15.65;100.00;100303.53;5044997;28;20033;-74
2023/07/30 05:20:32;;;;;;;23.67;16.77;;;;;;;15.85;100.00;100311.63;5047772;28;20120;-73
2023/07/30 05:22:57;;;;;;;28.70;18.50;;;;;;;16.04;100.00;100318.88;5030325;28;20051;-73
2023/07/30 05:25:23;;;;;;;20.00;14.47;;;;;;;16.11;100.00;100306.25;5030890;28;20072;-75
2023/07/30 05:27:48;;;;;;;24.37;15.93;;;;;;;16.12;100.00;100290.91;5028235;28;20023;-75
2023/07/30 05:30:13;;;;;;;22.43;14.80;;;;;;;16.17;100.00;100283.84;5048832;28;20122;-74
2023/07/30 05:32:39;;;;;;;21.80;14.87;;;;;;;16.36;100.00;100271.34;5026467;28;20025;-75
2023/07/30 05:35:05;;;;;;;20.33;13.67;;;;;;;16.51;100.00;100270.28;5044317;28;20136;-75
2023/07/30 05:37:30;;;;;;;18.45;13.80;;;;;;;16.57;100.00;100255.94;5023118;28;20079;-75
2023/07/30 05:39:55;;;;;;;22.73;14.60;;;;;;;16.62;100.00;100250.75;5046200;28;20842;-75
2023/07/30 05:42:21;;;;;;;22.17;13.93;;;;;;;16.55;100.00;100239.16;5032673;28;20029;-75
2023/07/30 05:44:46;;;;;;;21.23;13.50;;;;;;;16.55;100.00;100233.78;5043085;28;20037;-74
2023/07/30 05:47:11;;;;;;;21.80;15.37;;;;;;;16.29;100.00;100229.31;5051192;28;20016;-74
2023/07/30 05:49:37;;;;;;;20.70;14.13;;;;;;;16.38;100.00;100238.81;5032072;28;20511;-74
2023/07/30 05:52:02;;;;;;;27.00;16.80;;;;;;;16.24;100.00;100238.84;5052452;28;20039;-75
2023/07/30 05:54:28;;;;;;;30.02;18.67;;;;;;;16.22;100.00;100242.81;5018082;28;20450;-75
2023/07/30 05:56:53;;;;;;;30.90;17.53;;;;;;;16.20;100.00;100247.56;5051937;28;20035;-74
2023/07/30 05:59:19;;;;;;;27.77;17.13;;;;;;;16.13;100.00;100241.38;5055215;28;20025;-74
2023/07/30 06:01:45;;;;;;;28.85;17.95;;;;;;;16.11;100.00;100238.91;5044159;28;20841;-75
2023/07/30 06:04:10;;;;;;;26.93;16.53;;;;;;;16.17;100.00;100243.44;5031092;28;20108;-74
2023/07/30 06:06:35;;;;;;;24.33;15.97;;;;;;;16.37;100.00;100229.91;5053589;28;20107;-75
2023/07/30 06:09:01;;;;;;;23.80;15.60;;;;;;;16.50;100.00;100225.50;5031872;28;20057;-74
2023/07/30 06:11:27;;;;;;;21.03;14.57;;;;;;;16.46;100.00;100228.66;5052015;28;20028;-74
2023/07/30 06:13:52;;;;;;;26.98;14.43;;;;;;;16.45;100.00;100223.47;5026494;28;20075;-76
2023/07/30 06:16:18;;;;;;;23.77;13.80;;;;;;;16.40;100.00;100221.41;5059743;28;20049;-76
2023/07/30 06:18:44;;;;;;;;;;;;;;;16.22;100.00;100218.56;5044359;28;20033;-75
2023/07/30 06:21:09;;;;;;;;;;;;;;;16.46;100.00;100231.34;5031946;28;19931;-75
2023/07/30 06:23:34;;;;;;;21.03;13.90;;;;;;;16.57;100.00;100220.91;5031661;28;19966;-75
2023/07/30 06:26:00;;;;;;;43.03;14.93;;;;;;;16.50;100.00;100231.72;5049190;28;20035;-76
2023/07/30 06:28:25;;;;;;;24.30;12.88;;;;;;;16.57;100.00;100229.81;5048092;28;20127;-75
2023/07/30 06:30:51;;;;;;;18.53;13.73;;;;;;;16.76;100.00;100230.75;5051760;28;20033;-74
2023/07/30 06:33:16;;;;;;;26.90;13.57;;;;;;;16.57;100.00;100224.44;5047348;28;20100;-74
2023/07/30 06:35:41;;;;;;;21.40;13.20;;;;;;;16.63;100.00;100226.28;5048874;28;20044;-74
2023/07/30 06:38:08;;;;;;;20.63;11.90;;;;;;;16.49;100.00;100223.88;5033975;28;20035;-75
2023/07/30 06:40:34;;;;;;;22.80;11.55;;;;;;;16.73;100.00;100233.91;5027547;28;20119;-76
2023/07/30 06:43:00;;;;;;;22.03;11.50;;;;;;;16.88;100.00;100233.66;5047021;28;20529;-75
2023/07/30 06:45:25;;;;;;;19.55;11.07;;;;;;;16.81;100.00;100233.69;5032384;28;20040;-75
2023/07/30 06:47:51;;;;;;;19.58;12.43;;;;;;;17.06;100.00;100230.22;5014144;28;20056;-75
2023/07/30 06:50:16;;;;;;;18.15;10.98;;;;;;;17.12;100.00;100240.13;5060727;28;20067;-74
2023/07/30 06:52:42;;;;;;;26.23;11.83;;;;;;;17.18;100.00;100244.66;5027365;28;20115;-74
2023/07/30 06:55:07;;;;;;;18.20;10.00;;;;;;;17.19;100.00;100242.78;5024265;28;20021;-74
2023/07/30 06:57:32;;;;;;;26.23;11.50;;;;;;;17.08;100.00;100236.22;5044432;28;20187;-74
2023/07/30 06:59:58;;;;;;;15.93;10.03;;;;;;;17.00;100.00;100233.78;5031725;28;20386;-75
2023/07/30 07:02:24;;;;;;;17.20;9.37;;;;;;;16.98;100.00;100249.38;5046775;28;20647;-74
2023/07/30 07:04:49;;;;;;;14.98;9.00;;;;;;;17.38;100.00;100265.28;5030081;28;20032;-74
2023/07/30 07:07:15;;;;;;;13.38;8.20;;;;;;;17.98;100.00;100259.38;5041551;28;20036;-74
2023/07/30 07:09:40;;;;;;;14.15;7.65;;;;;;;18.28;100.00;100240.56;5027314;28;20032;-75
2023/07/30 07:12:06;;;;;;;18.17;7.47;;;;;;;18.53;100.00;100246.72;5052814;28;20033;-75
2023/07/30 07:14:32;;;;;;;14.38;6.63;;;;;;;19.51;100.00;100252.84;5046791;28;20021;-75
2023/07/30 07:16:57;;;;;;;16.88;6.97;;;;;;;19.21;100.00;100185.25;5029328;28;20036;-75
2023/07/30 07:19:23;;;;;;;13.87;5.57;;;;;;;18.65;100.00;100151.31;5030041;28;20044;-75
2023/07/30 07:21:48;;;;;;;15.53;6.30;;;;;;;18.94;100.00;100150.50;5043926;28;20033;-75
2023/07/30 07:24:14;;;;;;;13.73;5.45;;;;;;;20.02;100.00;100096.09;5048412;28;20024;-75
2023/07/30 07:26:39;;;;;;;10.07;4.65;;;;;;;21.15;100.00;100012.06;5035266;28;20035;-75
2023/07/30 07:29:04;;;;;;;14.93;5.90;;;;;;;20.47;100.00;99935.34;5053666;28;20071;-75
2023/07/30 07:31:30;;;;;;;9.13;4.97;;;;;;;20.19;100.00;99933.53;5049017;28;20127;-75
2023/07/30 07:33:55;;;;;;;8.03;4.43;;;;;;;20.06;100.00;99960.94;5040635;28;20489;-76
2023/07/30 07:36:21;;;;;;;8.67;4.33;;;;;;;20.08;100.00;99969.66;5057660;28;20021;-75
2023/07/30 07:38:46;;;;;;;10.70;5.30;;;;;;;19.65;100.00;99904.13;5029423;28;20363;-75
2023/07/30 07:41:16;;;;;;;9.80;5.32;;;;;;;19.40;100.00;99878.22;5054662;28;20050;-76
2023/07/30 07:43:46;;;;;;;13.13;5.25;;;;;;;19.69;100.00;99929.72;5056136;28;20477;-75
2023/07/30 07:46:14;;;;;;;12.73;5.20;;;;;;;20.45;100.00;100051.34;5049155;28;20029;-75
2023/07/30 07:48:41;;;;;;;11.45;5.03;;;;;;;21.37;100.00;99951.53;5045538;28;20278;-75
2023/07/30 07:51:06;;;;;;;12.40;4.70;;;;;;;20.97;100.00;99784.44;5012586;28;20163;-75
2023/07/30 07:53:32;;;;;;;14.60;4.88;;;;;;;21.61;100.00;99662.34;5045687;28;20444;-75
2023/07/30 07:55:57;;;;;;;10.27;4.53;;;;;;;21.37;100.00;99596.69;5029176;28;20045;-75
2023/07/30 07:58:22;;;;;;;13.03;4.60;;;;;;;19.98;100.00;99612.72;5049152;28;20115;-74
2023/07/30 08:00:48;;;;;;;9.70;4.33;;;;;;;20.34;100.00;99686.31;5049524;28;20052;-75
2023/07/30 08:03:13;;;;;;;26.50;5.83;;;;;;;20.44;100.00;99626.81;5054575;28;20025;-76
2023/07/30 08:05:38;;;;;;;12.03;4.23;;;;;;;20.11;100.00;99760.53;5060691;28;20233;-75
2023/07/30 08:08:04;;;;;;;7.20;4.37;;;;;;;20.42;100.00;99814.09;5056407;28;20023;-76
2023/07/30 08:10:29;;;;;;;12.83;5.67;;;;;;;20.48;100.00;99641.47;5045945;28;20032;-75
2023/07/30 08:12:54;;;;;;;9.97;4.30;;;;;;;20.08;100.00;99560.53;5046422;28;20033;-75
2023/07/30 08:15:20;;;;;;;9.50;3.80;;;;;;;20.32;100.00;99810.41;5054725;28;20032;-76
2023/07/30 08:17:45;;;;;;;9.63;4.55;;;;;;;20.38;100.00;99766.06;5054827;28;20885;-75
2023/07/30 08:20:11;;;;;;;11.53;4.50;;;;;;;19.49;100.00;99674.84;5029398;28;20029;-74
2023/07/30 08:22:36;;;;;;;11.80;5.20;;;;;;;20.02;100.00;99887.47;5012944;28;20043;-73
2023/07/30 08:25:02;;;;;;;10.70;4.23;;;;;;;19.86;100.00;99869.34;5039560;28;20044;-75
2023/07/30 08:27:28;;;;;;;;;;;;;;;19.84;100.00;99958.13;5029279;28;20533;-74
2023/07/30 08:29:53;;;;;;;9.45;3.83;;;;;;;20.60;100.00;99861.84;5051395;28;20007;-74
2023/07/30 08:32:18;;;;;;;10.17;3.70;;;;;;;20.94;100.00;99742.34;5046520;28;20024;-75
2023/07/30 08:34:44;;;;;;;9.77;3.53;;;;;;;20.54;100.00;99620.69;5031847;28;20036;-74
2023/07/30 08:37:09;;;;;;;15.80;4.20;;;;;;;20.67;100.00;99636.53;5056606;28;20029;-74
2023/07/30 08:39:34;;;;;;;7.40;3.50;;;;;;;21.48;100.00;99736.91;5056221;28;20044;-75
2023/07/30 08:42:00;;;;;;;10.50;3.23;;;;;;;22.16;100.00;99570.47;5056127;28;20052;-75
2023/07/30 08:44:25;;;;;;;12.63;4.07;;;;;;;21.19;100.00;99399.00;5044897;28;20960;-74
2023/07/30 08:46:51;;;;;;;9.55;3.35;;;;;;;21.69;100.00;99623.81;5051240;28;20041;-75
2023/07/30 08:49:16;;;;;;;10.00;3.20;;;;;;;22.64;100.00;99554.84;5028150;28;20033;-75
2023/07/30 08:51:42;;;;;;;11.40;3.00;;;;;;;22.04;100.00;99368.81;5033771;28;20035;-74
2023/07/30 08:54:09;;;;;;;;;;;;;;;22.16;100.00;99295.97;5047847;28;20078;-74
2023/07/30 08:56:34;;;;;;;5.72;2.85;;;;;;;21.71;100.00;99347.31;5044495;28;19991;-75
2023/07/30 08:59:02;;;;;;;13.03;3.47;;;;;;;21.46;100.00;99409.72;5059217;28;20135;-75
2023/07/30 09:01:31;;;;;;;8.65;3.08;;;;;;;20.98;100.00;99653.94;5055357;28;20470;-75
2023/07/30 09:04:02;;;;;;;13.07;3.53;;;;;;;21.40;100.00;99644.25;4948855;28;20567;-75
2023/07/30 09:06:28;;;;;;;21.98;3.90;;;;;;;22.76;100.00;99698.75;5041059;28;20147;-75
2023/07/30 09:08:53;;;;;;;10.03;3.60;;;;;;;22.46;100.00;99405.78;5014860;28;20691;-76
2023/07/30 09:11:20;;;;;;;9.37;3.07;;;;;;;22.34;100.00;99251.09;5041308;28;20079;-76
2023/07/30 09:13:46;;;;;;;5.32;2.78;;;;;;;21.12;100.00;99273.59;5023685;28;20268;-76
2023/07/30 09:16:13;;;;;;;11.98;3.83;;;;;;;22.62;100.00;99480.84;5025925;28;20128;-76
2023/07/30 09:18:40;;;;;;;11.38;2.78;;;;;;;22.27;100.00;99326.69;5025768;28;20083;-76
2023/07/30 09:21:10;;;;;;;7.38;2.90;;;;;;;22.09;100.00;99141.34;5039956;28;20036;-75
2023/07/30 09:23:42;;;;;;;8.80;3.15;;;;;;;22.80;100.00;99291.72;5012495;28;20075;-75
2023/07/30 09:26:08;;;;;;;5.65;2.45;;;;;;;23.12;100.00;99190.63;5027913;28;20092;-76
2023/07/30 09:28:34;;;;;;;9.32;2.92;;;;;;;23.05;100.00;99113.91;5012733;28;20026;-75
2023/07/30 09:31:01;;;;;;;8.57;2.55;;;;;;;23.73;100.00;99207.56;5024561;28;20048;-76
2023/07/30 09:33:27;;;;;;;8.32;2.97;;;;;;;24.00;97.77;99066.13;5032057;28;20071;-77
2023/07/30 09:35:53;;;;;;;8.38;2.38;;;;;;;23.58;95.65;98926.03;5032202;28;20037;-77
2023/07/30 09:38:19;;;;;;;12.70;2.70;;;;;;;23.31;96.19;98958.50;5032242;28;20021;-76
2023/07/30 09:40:47;;;;;;;;;;;;;;;23.71;96.76;99120.66;5015958;28;20045;-76
2023/07/30 09:43:13;;;;;;;5.28;2.08;;;;;;;23.59;93.05;98921.41;5011992;28;20028;-75
2023/07/30 09:45:38;;;;;;;8.23;2.42;;;;;;;24.28;96.62;99275.44;5027766;28;20535;-75
2023/07/30 09:48:05;;;;;;;10.13;2.33;;;;;;;24.85;93.61;99236.31;5024997;28;20542;-75
2023/07/30 09:50:33;;;;;;;9.48;2.40;;;;;;;23.63;91.36;98867.16;5024080;28;20932;-76
2023/07/30 09:53:01;;;;;;;7.70;2.47;;;;;;;24.49;92.79;99211.44;5011471;28;20034;-75
2023/07/30 09:55:27;;;;;;;9.23;2.38;;;;;;;23.49;88.24;98669.09;5011850;28;20034;-75
2023/07/30 09:57:52;;;;;;;6.20;3.22;;;;;;;22.77;92.41;98846.94;5007938;28;20040;-75
2023/07/30 10:00:18;;;;;;;5.95;2.60;;;;;;;22.61;96.05;99060.34;5027097;28;20029;-74
2023/07/30 10:02:49;;;;;;;8.50;2.97;;;;;;;21.73;100.00;99235.69;5036459;28;20026;-74
2023/07/30 10:05:17;;;;;;;6.28;2.50;;;;;;;21.89;100.00;99509.00;5011490;28;20284;-74
2023/07/30 10:07:53;;;;;;;9.50;2.58;;;;;;;21.70;100.00;99488.81;5027038;28;20022;-74
2023/07/30 10:10:19;;;;;;;;;;;;;;;21.15;100.00;99490.19;5012189;28;20414;-73
2023/07/30 10:12:46;;;;;;;9.60;3.47;;;;;;;20.47;100.00;99620.88;5011467;28;19916;-73
2023/07/30 10:15:11;;;;;;;8.00;3.42;;;;;;;20.30;100.00;99771.91;5018311;28;20488;-74
2023/07/30 10:17:37;;;;;;;13.03;3.67;;;;;;;19.95;100.00;99912.03;5010518;28;20053;-74
2023/07/30 10:20:27;;;;;;;10.83;3.97;;;;;;;20.10;100.00;100030.66;5011440;28;20053;-76
2023/07/30 10:22:54;;;;;;;9.00;3.45;;;;;;;20.01;100.00;100097.97;5019347;28;20712;-76
2023/07/30 10:25:27;;;;;;;16.90;5.70;;;;;;;19.33;100.00;100380.94;5047051;28;20071;-78
2023/07/30 10:27:52;;;;;;;15.30;5.95;;;;;;;18.91;100.00;100497.16;5040389;28;20045;-77
2023/07/30 10:30:19;;;;;;;17.80;6.20;;;;;;;18.56;100.00;100494.94;5011340;28;20014;-76
2023/07/30 10:33:08;;;;;;;18.13;5.18;;;;;;;18.20;100.00;100411.09;5024028;28;20396;-76
2023/07/30 10:35:47;;;;;;;18.15;6.00;;;;;;;18.47;100.00;100417.91;5008575;28;20034;-76
2023/07/30 10:38:28;;;;;;;12.82;6.05;;;;;;;18.45;100.00;100417.31;5025407;28;20053;-77
2023/07/30 10:41:01;;;;;;;19.80;7.50;;;;;;;18.64;100.00;100425.44;5027385;28;20487;-78
2023/07/30 10:43:31;;;;;;;15.88;6.55;;;;;;;18.73;100.00;100418.66;5012192;28;20037;-77
2023/07/30 10:45:56;;;;;;;14.80;6.03;;;;;;;18.76;100.00;100364.16;5025474;28;20049;-77
2023/07/30 10:48:32;;;;;;;17.40;5.87;;;;;;;19.30;100.00;100376.00;5023724;28;20057;-77
2023/07/30 10:51:00;;;;;;;19.25;7.50;;;;;;;19.07;100.00;100233.31;5024888;28;20057;-76
2023/07/30 10:53:25;;;;;;;13.85;7.82;;;;;;;18.82;100.00;100117.19;5029976;28;20025;-76
2023/07/30 10:55:52;;;;;;;15.93;5.77;;;;;;;19.73;100.00;100092.50;4991388;28;20406;-76
2023/07/30 10:58:18;;;;;;;26.85;6.70;;;;;;;19.85;100.00;100074.34;5015194;28;20446;-77
2023/07/30 11:00:43;;;;;;;12.35;4.97;;;;;;;20.03;100.00;99973.09;5031432;28;20124;-77
2023/07/30 11:03:08;;;;;;;15.57;4.87;;;;;;;20.16;100.00;99926.72;5011470;28;20025;-77
2023/07/30 11:05:34;;;;;;;12.33;5.10;;;;;;;20.82;100.00;99859.13;5027731;28;20037;-77